Time;durP1;ratioP1;P1;durP2;ratioP2;P2;SDS_P1;SDS_P2;PMS_P1;PMS_P2;Temp;Humidity;BMP_temperature;BMP_pressure;BME280_temperature;BME280_humidity;BME280_pressure;Samples;Min_cycle;Max_cycle;Signal;HPM_P1;HPM_P2
2023/08/03 00:01:41;;;;;;;2.63;1.20;;;22.20;99.90;;;;;;4934000;29;20887;-84
2023/08/03 00:04:08;;;;;;;3.03;1.40;;;22.10;99.90;;;;;;4934816;29;20457;-85
2023/08/03 00:06:35;;;;;;;1.40;0.90;;;22.10;99.90;;;;;;4934171;29;20760;-85
2023/08/03 00:09:01;;;;;;;1.97;1.00;;;22.10;99.90;;;;;;4929932;28;20893;-85
2023/08/03 00:11:28;;;;;;;1.10;1.00;;;22.10;99.90;;;;;;4932880;29;20466;-85
2023/08/03 00:24:04;;;;;;;1.30;0.90;;;22.10;99.90;;;;;;4913446;28;20465;-76
2023/08/03 00:26:31;;;;;;;1.50;1.00;;;22.10;99.90;;;;;;4919978;28;20957;-77
2023/08/03 00:28:58;;;;;;;1.40;0.90;;;22.10;99.90;;;;;;4914675;28;20491;-76
2023/08/03 00:31:24;;;;;;;1.30;0.90;;;22.10;99.90;;;;;;4919202;28;20926;-76
2023/08/03 00:33:51;;;;;;;1.53;1.20;;;22.10;99.90;;;;;;4918085;28;20478;-77
2023/08/03 00:36:18;;;;;;;1.23;0.90;;;22.10;99.90;;;;;;4917540;28;20470;-76
2023/08/03 00:38:45;;;;;;;2.77;1.00;;;22.10;99.90;;;;;;4916367;29;20454;-75
2023/08/03 00:41:13;;;;;;;1.50;1.00;;;22.10;99.90;;;;;;4920648;28;20986;-76
2023/08/03 00:43:40;;;;;;;1.40;1.10;;;22.10;99.90;;;;;;4919144;28;20465;-75
2023/08/03 00:46:06;;;;;;;1.40;1.10;;;22.10;99.90;;;;;;4914598;28;20489;-74
2023/08/03 00:48:33;;;;;;;1.63;0.93;;;22.10;99.90;;;;;;4915306;28;20497;-77
2023/08/03 00:51:00;;;;;;;1.93;1.10;;;22.10;99.90;;;;;;4914941;28;20709;-76
2023/08/03 00:53:27;;;;;;;1.67;0.93;;;22.10;99.90;;;;;;4917658;29;22141;-76
2023/08/03 00:55:53;;;;;;;1.43;0.90;;;22.10;99.90;;;;;;4912725;28;20993;-76
2023/08/03 00:58:21;;;;;;;2.20;1.33;;;22.10;99.90;;;;;;4916267;28;20465;-76
2023/08/03 01:00:48;;;;;;;1.37;1.00;;;22.10;99.90;;;;;;4917135;29;20463;-76
2023/08/03 01:03:15;;;;;;;2.07;0.90;;;22.10;99.90;;;;;;4914035;28;20461;-76
2023/08/03 01:05:42;;;;;;;1.10;0.73;;;22.10;99.90;;;;;;4918775;29;21255;-76
2023/08/03 01:08:08;;;;;;;1.80;1.10;;;22.10;99.90;;;;;;4920179;29;20505;-76
2023/08/03 01:10:36;;;;;;;2.23;0.80;;;22.10;99.90;;;;;;4920187;28;21518;-77
2023/08/03 01:13:03;;;;;;;1.80;1.10;;;22.10;99.90;;;;;;4913136;28;20474;-75
2023/08/03 01:15:31;;;;;;;1.00;0.73;;;22.10;99.90;;;;;;4916653;28;20475;-75
2023/08/03 01:17:58;;;;;;;1.63;0.80;;;22.10;99.90;;;;;;4915688;28;20478;-75
2023/08/03 01:20:25;;;;;;;2.07;1.17;;;22.10;99.90;;;;;;4914396;28;20487;-74
2023/08/03 01:22:54;;;;;;;1.33;0.90;;;22.10;99.90;;;;;;4920810;29;21208;-75
2023/08/03 01:25:21;;;;;;;1.10;0.80;;;22.10;99.90;;;;;;4915903;28;20493;-75
2023/08/03 01:27:49;;;;;;;2.17;1.13;;;22.10;99.90;;;;;;4918546;28;20485;-75
2023/08/03 01:30:16;;;;;;;2.60;1.13;;;22.10;99.90;;;;;;4913493;28;21044;-75
2023/08/03 01:32:43;;;;;;;2.57;1.20;;;22.10;99.90;;;;;;4920540;29;20495;-75
2023/08/03 01:35:10;;;;;;;1.70;0.90;;;22.00;99.90;;;;;;4914588;28;20500;-74
2023/08/03 01:37:37;;;;;;;1.20;1.10;;;22.00;99.90;;;;;;4913626;28;20509;-74
2023/08/03 01:40:06;;;;;;;1.93;0.90;;;22.00;99.90;;;;;;4916768;29;20463;-75
2023/08/03 01:42:33;;;;;;;1.33;1.00;;;22.00;99.90;;;;;;4914155;28;21563;-74
2023/08/03 01:45:00;;;;;;;1.13;0.80;;;22.00;99.90;;;;;;4912516;29;21261;-75
2023/08/03 01:47:26;;;;;;;1.37;0.80;;;22.00;99.90;;;;;;4913845;28;20466;-75
2023/08/03 01:49:53;;;;;;;1.97;0.80;;;22.00;99.90;;;;;;4916609;29;20505;-74
2023/08/03 01:52:20;;;;;;;1.20;0.90;;;22.00;99.90;;;;;;4916249;29;20470;-76
2023/08/03 01:54:47;;;;;;;2.30;1.00;;;22.00;99.90;;;;;;4919691;29;20908;-76
2023/08/03 01:57:15;;;;;;;1.77;1.07;;;22.00;99.90;;;;;;4917496;28;20478;-76
2023/08/03 01:59:42;;;;;;;1.80;1.07;;;22.00;99.90;;;;;;4915266;28;20828;-76
2023/08/03 02:02:08;;;;;;;1.40;1.10;;;22.00;99.90;;;;;;4916109;29;21052;-73
2023/08/03 02:04:35;;;;;;;1.37;1.00;;;22.00;99.90;;;;;;4920795;29;21076;-73
2023/08/03 02:07:09;;;;;;;1.47;1.37;;;22.00;99.90;;;;;;4921251;29;20474;-76
2023/08/03 02:09:36;;;;;;;2.00;1.13;;;22.00;99.90;;;;;;4922307;29;20497;-76
2023/08/03 02:12:03;;;;;;;2.00;0.90;;;22.00;99.90;;;;;;4916360;29;20811;-75
2023/08/03 02:14:31;;;;;;;1.50;0.90;;;22.00;99.90;;;;;;4919266;28;20481;-76
2023/08/03 02:16:58;;;;;;;1.23;0.87;;;22.00;99.90;;;;;;4915563;29;20462;-76
2023/08/03 02:19:25;;;;;;;1.23;1.00;;;22.00;99.90;;;;;;4921296;28;20481;-76
2023/08/03 02:21:51;;;;;;;1.23;1.00;;;22.00;99.90;;;;;;4919538;28;20488;-76
2023/08/03 02:24:18;;;;;;;2.23;1.03;;;22.00;99.90;;;;;;4928661;29;20470;-76
2023/08/03 02:26:45;;;;;;;1.20;1.00;;;22.00;99.90;;;;;;4933144;29;21485;-76
2023/08/03 02:29:12;;;;;;;1.00;0.80;;;22.00;99.90;;;;;;4932904;28;20496;-75
2023/08/03 02:31:40;;;;;;;1.70;0.90;;;22.00;99.90;;;;;;4933751;29;20467;-75
2023/08/03 02:34:08;;;;;;;2.37;1.00;;;22.00;99.90;;;;;;4932688;29;20458;-76
2023/08/03 02:36:35;;;;;;;1.27;1.07;;;22.00;99.90;;;;;;4931119;28;20960;-76
2023/08/03 02:39:01;;;;;;;1.20;0.87;;;22.00;99.90;;;;;;4931820;28;20474;-81
2023/08/03 02:41:28;;;;;;;1.17;0.90;;;22.00;99.90;;;;;;4933374;29;20742;-80
2023/08/03 02:43:55;;;;;;;1.10;0.87;;;22.00;99.90;;;;;;4934389;29;20457;-81
2023/08/03 02:46:22;;;;;;;1.00;0.80;;;22.00;99.90;;;;;;4933603;29;21048;-81
2023/08/03 02:48:50;;;;;;;1.10;0.90;;;22.00;99.90;;;;;;4934705;29;21126;-81
2023/08/03 02:51:17;;;;;;;2.80;1.63;;;22.00;99.90;;;;;;4932193;29;20470;-81
2023/08/03 02:53:44;;;;;;;1.00;0.80;;;22.00;99.90;;;;;;4930689;28;20997;-81
2023/08/03 02:56:10;;;;;;;1.10;0.93;;;21.90;99.90;;;;;;4931873;29;20467;-82
2023/08/03 02:58:37;;;;;;;1.43;0.90;;;22.00;99.90;;;;;;4931135;29;20881;-81
2023/08/03 03:01:05;;;;;;;1.03;0.80;;;21.90;99.90;;;;;;4929483;29;20474;-82
2023/08/03 03:03:31;;;;;;;1.83;0.80;;;21.90;99.90;;;;;;4933042;29;20454;-81
2023/08/03 03:05:59;;;;;;;1.83;0.93;;;21.90;99.90;;;;;;4927695;29;20454;-81
2023/08/03 03:08:26;;;;;;;1.30;0.90;;;21.90;99.90;;;;;;4925233;29;20469;-81
2023/08/03 03:10:53;;;;;;;1.10;0.93;;;21.90;99.90;;;;;;4928242;29;20494;-81
2023/08/03 03:13:20;;;;;;;1.10;0.80;;;21.90;99.90;;;;;;4927976;29;21000;-81
2023/08/03 03:15:46;;;;;;;1.40;1.03;;;22.00;99.90;;;;;;4927207;28;20468;-82
2023/08/03 03:18:13;;;;;;;1.10;0.80;;;21.90;99.90;;;;;;4926221;28;20478;-81
2023/08/03 03:20:40;;;;;;;0.90;0.80;;;21.90;99.90;;;;;;4925170;28;21091;-81
2023/08/03 03:23:08;;;;;;;1.30;0.80;;;21.90;99.90;;;;;;4926256;29;20480;-81
2023/08/03 03:25:34;;;;;;;1.27;0.90;;;21.90;99.90;;;;;;4926244;28;20481;-81
2023/08/03 03:28:04;;;;;;;1.20;0.80;;;21.90;99.90;;;;;;4925699;29;20929;-81
2023/08/03 03:30:31;;;;;;;1.70;1.00;;;21.90;99.90;;;;;;4928045;28;20584;-81
2023/08/03 03:32:57;;;;;;;1.73;0.83;;;21.90;99.90;;;;;;4927818;29;20468;-81
2023/08/03 03:35:24;;;;;;;1.57;0.90;;;21.90;99.90;;;;;;4929090;29;20467;-81
2023/08/03 03:37:51;;;;;;;1.40;1.03;;;21.90;99.90;;;;;;4930800;29;20990;-81
2023/08/03 03:40:19;;;;;;;1.00;0.80;;;21.90;99.90;;;;;;4930871;29;20449;-81
2023/08/03 03:42:46;;;;;;;1.20;0.90;;;21.90;99.90;;;;;;4930482;29;20469;-81
2023/08/03 03:45:13;;;;;;;2.53;1.17;;;21.90;99.90;;;;;;4928030;29;20723;-81
2023/08/03 03:47:39;;;;;;;1.40;1.07;;;21.90;99.90;;;;;;4930029;29;20470;-81
2023/08/03 03:50:07;;;;;;;1.00;0.77;;;21.90;99.90;;;;;;4929371;29;20862;-81
2023/08/03 03:52:33;;;;;;;2.00;0.90;;;21.90;99.90;;;;;;4927919;29;20473;-81
2023/08/03 03:55:00;;;;;;;1.20;1.00;;;21.90;99.90;;;;;;4927434;29;20493;-81
2023/08/03 03:57:28;;;;;;;1.20;1.00;;;21.90;99.90;;;;;;4929032;29;20846;-81
2023/08/03 03:59:55;;;;;;;1.60;0.93;;;21.90;99.90;;;;;;4929025;28;20459;-81
2023/08/03 04:02:22;;;;;;;1.57;1.00;;;21.90;99.90;;;;;;4927757;29;20465;-81
2023/08/03 04:04:48;;;;;;;1.43;0.90;;;21.90;99.90;;;;;;4927879;28;20463;-81
2023/08/03 04:07:15;;;;;;;1.17;1.07;;;21.90;99.90;;;;;;4927928;29;20467;-81
2023/08/03 04:09:42;;;;;;;1.10;0.90;;;21.90;99.90;;;;;;4930163;29;20486;-81
2023/08/03 04:12:09;;;;;;;2.03;1.00;;;21.90;99.90;;;;;;4929062;28;20466;-81
2023/08/03 04:14:37;;;;;;;1.50;1.17;;;21.90;99.90;;;;;;4931003;29;20811;-81
2023/08/03 04:17:04;;;;;;;1.53;0.90;;;21.90;99.90;;;;;;4935524;29;20467;-81
2023/08/03 04:19:31;;;;;;;1.60;1.03;;;21.80;99.90;;;;;;4936181;29;20467;-81
2023/08/03 04:21:58;;;;;;;1.00;0.83;;;21.80;99.90;;;;;;4933010;29;20931;-80
2023/08/03 04:24:24;;;;;;;0.90;0.70;;;21.80;99.90;;;;;;4933347;29;20833;-80
2023/08/03 04:26:51;;;;;;;1.20;0.90;;;21.80;99.90;;;;;;4934337;28;20897;-80
2023/08/03 04:29:18;;;;;;;1.10;1.00;;;21.80;99.90;;;;;;4931331;28;20876;-81
2023/08/03 04:31:46;;;;;;;1.37;0.90;;;21.80;99.90;;;;;;4929773;29;20493;-82
2023/08/03 04:34:13;;;;;;;1.20;0.73;;;21.80;99.90;;;;;;4930843;29;20454;-81
2023/08/03 04:36:40;;;;;;;1.10;0.90;;;21.80;99.90;;;;;;4931267;28;20469;-81
2023/08/03 04:39:07;;;;;;;1.30;0.70;;;21.80;99.90;;;;;;4931323;29;21090;-81
2023/08/03 04:41:34;;;;;;;1.20;0.90;;;21.80;99.90;;;;;;4932982;29;20466;-82
2023/08/03 04:44:00;;;;;;;1.47;1.00;;;21.80;99.90;;;;;;4932416;29;20466;-81
2023/08/03 04:46:27;;;;;;;1.33;1.03;;;21.80;99.90;;;;;;4929752;28;20469;-80
2023/08/03 04:48:56;;;;;;;1.67;0.90;;;21.80;99.90;;;;;;4933709;29;20892;-82
2023/08/03 04:51:22;;;;;;;1.10;0.80;;;21.80;99.90;;;;;;4932276;29;20466;-82
2023/08/03 04:53:49;;;;;;;1.50;1.10;;;21.80;99.90;;;;;;4928617;29;20667;-81
2023/08/03 04:56:16;;;;;;;1.97;1.03;;;21.80;99.90;;;;;;4926275;29;20461;-81
2023/08/03 04:58:43;;;;;;;1.30;1.00;;;21.80;99.90;;;;;;4929464;28;20795;-81
2023/08/03 05:01:09;;;;;;;6.67;1.00;;;21.80;99.90;;;;;;4926782;28;20489;-82
2023/08/03 05:03:36;;;;;;;1.20;0.93;;;21.80;99.90;;;;;;4930533;29;20457;-81
2023/08/03 05:06:04;;;;;;;1.13;0.87;;;21.80;99.90;;;;;;4925469;29;20636;-81
2023/08/03 05:08:31;;;;;;;3.03;1.03;;;21.80;99.90;;;;;;4925472;28;20471;-81
2023/08/03 05:10:58;;;;;;;2.53;1.10;;;21.80;99.90;;;;;;4929271;28;20491;-82
2023/08/03 05:13:24;;;;;;;1.60;1.10;;;21.80;99.90;;;;;;4928724;29;20810;-82
2023/08/03 05:15:51;;;;;;;1.30;1.20;;;21.80;99.90;;;;;;4922689;28;20506;-81
2023/08/03 05:18:18;;;;;;;1.20;1.00;;;21.80;99.90;;;;;;4923204;29;20480;-82
2023/08/03 05:20:45;;;;;;;2.43;0.80;;;21.80;99.90;;;;;;4926556;28;20463;-80
2023/08/03 05:23:13;;;;;;;3.33;1.40;;;21.80;99.90;;;;;;4923633;28;20477;-82
2023/08/03 05:25:40;;;;;;;1.67;0.90;;;21.80;99.90;;;;;;4928195;29;20884;-80
2023/08/03 05:28:07;;;;;;;1.10;0.80;;;21.80;99.90;;;;;;4929317;28;20544;-82
2023/08/03 05:30:34;;;;;;;2.70;0.97;;;21.80;99.90;;;;;;4928258;28;20493;-81
2023/08/03 05:33:02;;;;;;;1.83;1.10;;;21.80;99.90;;;;;;4926471;28;20494;-81
2023/08/03 05:35:29;;;;;;;2.10;1.10;;;21.80;99.90;;;;;;4925892;28;20461;-82
2023/08/03 05:37:56;;;;;;;1.67;1.20;;;21.80;99.90;;;;;;4928831;28;20461;-82
2023/08/03 05:40:24;;;;;;;1.60;1.10;;;21.80;99.90;;;;;;4927777;28;21403;-81
2023/08/03 05:42:50;;;;;;;1.60;1.00;;;21.80;99.90;;;;;;4930444;29;20989;-82
2023/08/03 05:45:35;;;;;;;2.50;1.43;;;21.80;99.90;;;;;;4927294;28;20735;-82
2023/08/03 05:48:05;;;;;;;1.63;0.90;;;21.80;99.90;;;;;;4928032;28;20466;-82
2023/08/03 05:50:32;;;;;;;1.20;0.97;;;21.80;99.90;;;;;;4928706;28;20604;-82
2023/08/03 05:52:59;;;;;;;1.10;0.90;;;21.80;99.90;;;;;;4924896;29;20478;-81
2023/08/03 05:55:27;;;;;;;1.40;0.97;;;21.80;99.90;;;;;;4925180;28;20469;-82
2023/08/03 05:57:55;;;;;;;2.00;0.87;;;21.80;99.90;;;;;;4929775;29;20458;-82
2023/08/03 06:00:22;;;;;;;1.20;1.00;;;21.80;99.90;;;;;;4922694;28;20467;-82
2023/08/03 06:02:49;;;;;;;1.67;0.93;;;21.80;99.90;;;;;;4925424;29;20977;-82
2023/08/03 06:05:42;;;;;;;2.03;0.83;;;21.80;99.90;;;;;;4924521;29;20914;-82
2023/08/03 06:08:16;;;;;;;1.30;1.00;;;21.80;99.90;;;;;;4924205;29;20466;-81
2023/08/03 06:10:46;;;;;;;1.50;0.97;;;21.80;99.90;;;;;;4927138;28;20486;-81
2023/08/03 06:13:16;;;;;;;3.27;0.80;;;21.80;99.90;;;;;;4926944;29;20468;-82
2023/08/03 06:15:43;;;;;;;1.00;0.80;;;21.70;99.90;;;;;;4925252;28;21033;-81
2023/08/03 06:18:12;;;;;;;1.87;1.10;;;21.70;99.90;;;;;;4920873;28;20466;-82
2023/08/03 06:20:44;;;;;;;1.67;1.20;;;21.80;99.90;;;;;;4924945;28;20471;-81
2023/08/03 06:23:16;;;;;;;1.23;0.80;;;21.70;99.90;;;;;;4925801;28;20834;-82
2023/08/03 06:25:44;;;;;;;1.50;1.00;;;21.70;99.90;;;;;;4926662;28;20858;-82
2023/08/03 06:28:11;;;;;;;1.33;1.20;;;21.70;99.90;;;;;;4925671;28;20482;-82
2023/08/03 06:30:38;;;;;;;1.50;0.80;;;21.70;99.90;;;;;;4925686;28;20589;-81
2023/08/03 06:33:05;;;;;;;1.33;1.20;;;21.70;99.90;;;;;;4927862;28;20471;-81
2023/08/03 06:35:38;;;;;;;1.10;0.77;;;21.70;99.90;;;;;;4925299;29;20672;-82
2023/08/03 06:38:05;;;;;;;1.40;0.93;;;21.70;99.90;;;;;;4926129;28;20466;-82
2023/08/03 06:40:32;;;;;;;1.23;0.87;;;21.70;99.90;;;;;;4927775;28;21037;-82
2023/08/03 06:43:01;;;;;;;2.37;0.90;;;21.70;99.90;;;;;;4928042;28;20461;-82
2023/08/03 06:45:29;;;;;;;1.10;1.00;;;21.70;99.90;;;;;;4928093;29;21026;-82
2023/08/03 06:47:56;;;;;;;1.20;0.97;;;21.70;99.90;;;;;;4928904;29;20981;-82
2023/08/03 06:50:23;;;;;;;2.43;1.17;;;21.70;99.90;;;;;;4928377;28;20526;-82
2023/08/03 06:52:51;;;;;;;1.60;0.90;;;21.70;99.90;;;;;;4929497;29;20470;-81
2023/08/03 06:55:18;;;;;;;1.30;1.00;;;21.70;99.90;;;;;;4929811;29;20819;-82
2023/08/03 06:57:45;;;;;;;1.17;0.93;;;21.70;99.90;;;;;;4931462;28;20585;-82
2023/08/03 07:00:14;;;;;;;1.00;0.73;;;21.70;99.90;;;;;;4930219;28;20463;-82
2023/08/03 07:02:41;;;;;;;1.27;0.83;;;21.70;99.90;;;;;;4934048;29;20465;-82
2023/08/03 07:05:08;;;;;;;1.30;0.80;;;21.70;99.90;;;;;;4930151;28;20469;-81
2023/08/03 07:07:34;;;;;;;1.30;1.00;;;21.70;99.90;;;;;;4934122;28;20467;-83
2023/08/03 07:10:01;;;;;;;1.47;0.90;;;21.70;99.90;;;;;;4934689;28;21014;-81
2023/08/03 07:12:29;;;;;;;1.10;0.80;;;21.70;99.90;;;;;;4936750;29;20438;-82
2023/08/03 07:14:56;;;;;;;1.30;0.83;;;21.70;99.90;;;;;;4934953;28;20473;-80
2023/08/03 07:17:24;;;;;;;1.40;0.90;;;21.70;99.90;;;;;;4937154;29;21089;-80
2023/08/03 07:19:51;;;;;;;1.00;0.90;;;21.70;99.90;;;;;;4939393;28;20478;-81
2023/08/03 07:22:18;;;;;;;1.80;0.90;;;21.70;99.90;;;;;;4925973;28;20475;-79
2023/08/03 07:24:45;;;;;;;2.20;1.10;;;21.70;99.90;;;;;;4926449;28;20451;-81
2023/08/03 07:27:12;;;;;;;3.00;1.00;;;21.70;99.90;;;;;;4926249;28;20472;-83
2023/08/03 07:29:39;;;;;;;2.07;0.90;;;21.70;99.90;;;;;;4927074;29;20455;-82
2023/08/03 07:32:06;;;;;;;1.47;1.00;;;21.70;99.90;;;;;;4926525;28;20577;-82
2023/08/03 07:34:34;;;;;;;2.67;1.20;;;21.70;99.90;;;;;;4927840;29;20481;-81
2023/08/03 07:37:02;;;;;;;3.33;0.90;;;21.70;99.90;;;;;;4922252;28;20467;-85
2023/08/03 07:39:29;;;;;;;1.20;1.10;;;21.70;99.90;;;;;;4931443;28;20467;-85
2023/08/03 07:41:56;;;;;;;2.53;0.93;;;21.70;99.90;;;;;;4927653;29;20446;-85
2023/08/03 07:44:23;;;;;;;3.90;1.03;;;21.70;99.90;;;;;;4926785;28;20462;-85
2023/08/03 07:46:50;;;;;;;1.97;0.97;;;21.70;99.90;;;;;;4930655;28;20458;-81
2023/08/03 07:49:16;;;;;;;1.10;0.70;;;21.70;99.90;;;;;;4931481;29;20469;-81
2023/08/03 07:51:45;;;;;;;1.20;0.80;;;21.70;99.90;;;;;;4930934;28;20489;-81
2023/08/03 07:54:11;;;;;;;1.00;0.70;;;21.70;99.90;;;;;;4928064;29;20470;-81
2023/08/03 07:56:38;;;;;;;6.63;1.03;;;21.70;99.90;;;;;;4927463;28;20459;-83
2023/08/03 07:59:05;;;;;;;5.83;1.03;;;21.70;99.90;;;;;;4927380;29;20471;-80
2023/08/03 08:01:32;;;;;;;1.70;0.90;;;21.80;99.90;;;;;;4929013;28;20967;-84
2023/08/03 08:03:59;;;;;;;2.17;0.90;;;21.80;99.90;;;;;;4924542;28;20469;-82
2023/08/03 08:06:26;;;;;;;1.57;0.80;;;21.80;99.90;;;;;;4927934;28;20536;-83
2023/08/03 08:08:54;;;;;;;4.90;1.03;;;21.80;99.90;;;;;;4924857;28;21076;-83
2023/08/03 08:11:21;;;;;;;1.20;1.00;;;21.80;99.90;;;;;;4930584;28;20485;-84
2023/08/03 08:13:48;;;;;;;3.80;1.23;;;21.80;99.90;;;;;;4931620;28;20475;-81
2023/08/03 08:16:16;;;;;;;4.43;1.00;;;21.80;99.90;;;;;;4930181;28;20474;-84
2023/08/03 08:18:43;;;;;;;3.70;1.40;;;21.80;99.90;;;;;;4931419;28;20481;-82
2023/08/03 08:21:11;;;;;;;1.70;1.30;;;21.80;99.90;;;;;;4932783;28;20819;-83
2023/08/03 08:23:39;;;;;;;2.80;1.10;;;21.80;99.90;;;;;;4930400;28;20477;-83
2023/08/03 08:26:12;;;;;;;3.00;1.07;;;21.80;99.90;;;;;;4931898;28;20857;-81
2023/08/03 08:28:38;;;;;;;1.50;1.10;;;21.80;99.90;;;;;;4932450;28;20462;-81
2023/08/03 08:31:05;;;;;;;1.67;1.20;;;21.80;99.90;;;;;;4928687;28;20486;-81
2023/08/03 08:33:32;;;;;;;1.00;0.70;;;21.80;99.90;;;;;;4927689;28;20462;-80
2023/08/03 08:35:59;;;;;;;3.43;1.37;;;21.80;99.90;;;;;;4931503;28;20466;-81
2023/08/03 08:38:26;;;;;;;1.70;0.87;;;21.80;99.90;;;;;;4931083;28;20813;-81
2023/08/03 08:40:53;;;;;;;1.30;0.90;;;21.80;99.90;;;;;;4932178;29;21134;-81
2023/08/03 08:43:21;;;;;;;3.73;1.00;;;21.80;99.90;;;;;;4931942;29;20460;-81
2023/08/03 08:45:49;;;;;;;2.47;1.13;;;21.90;99.90;;;;;;4928496;28;21041;-81
2023/08/03 08:48:15;;;;;;;3.20;1.00;;;21.90;99.90;;;;;;4926470;28;20945;-81
2023/08/03 08:50:43;;;;;;;2.27;1.03;;;21.90;99.90;;;;;;4932622;28;20486;-80
2023/08/03 08:53:13;;;;;;;1.70;1.17;;;21.90;99.90;;;;;;4925553;28;20458;-80
2023/08/03 08:55:39;;;;;;;1.33;0.97;;;21.90;99.90;;;;;;4929806;28;20471;-81
2023/08/03 08:58:06;;;;;;;1.73;1.07;;;21.90;99.90;;;;;;4932332;28;20980;-81
2023/08/03 09:00:43;;;;;;;1.40;1.00;;;21.90;99.90;;;;;;4927105;28;20451;-87
2023/08/03 09:03:10;;;;;;;2.27;1.10;;;21.90;99.90;;;;;;4922482;28;20470;-81
2023/08/03 09:05:39;;;;;;;1.93;1.00;;;22.00;99.90;;;;;;4928720;28;20826;-83
2023/08/03 09:08:07;;;;;;;3.47;1.40;;;22.00;99.90;;;;;;4925336;28;20524;-83
2023/08/03 09:10:48;;;;;;;1.40;1.23;;;22.00;99.90;;;;;;4928402;28;21075;-84
2023/08/03 09:13:26;;;;;;;2.03;1.10;;;22.00;99.90;;;;;;4927723;28;20457;-83
2023/08/03 09:15:55;;;;;;;3.03;1.70;;;22.00;99.90;;;;;;4930199;29;20914;-84
2023/08/03 09:18:22;;;;;;;4.03;1.23;;;22.00;99.90;;;;;;4927430;29;20485;-81
2023/08/03 09:20:50;;;;;;;2.33;1.23;;;22.00;99.90;;;;;;4929886;28;20988;-81
2023/08/03 09:23:30;;;;;;;2.70;1.23;;;22.00;99.90;;;;;;4919492;28;21113;-82
2023/08/03 09:25:57;;;;;;;1.73;1.13;;;22.00;99.90;;;;;;4925599;28;20466;-82
2023/08/03 09:28:35;;;;;;;2.07;1.30;;;22.00;99.90;;;;;;4925883;28;21096;-81
2023/08/03 09:31:04;;;;;;;1.33;0.93;;;22.00;99.90;;;;;;4925100;28;20533;-82
2023/08/03 09:33:31;;;;;;;2.40;1.47;;;22.00;99.90;;;;;;4928234;28;20477;-82
2023/08/03 09:36:05;;;;;;;2.07;1.47;;;22.00;99.90;;;;;;4929418;28;21217;-81
2023/08/03 09:38:32;;;;;;;2.40;1.20;;;22.10;99.90;;;;;;4928781;29;20476;-87
2023/08/03 09:40:59;;;;;;;2.00;1.20;;;22.10;99.90;;;;;;4923982;28;20477;-86
2023/08/03 09:43:27;;;;;;;4.13;1.70;;;22.10;99.90;;;;;;4924562;28;20808;-79
2023/08/03 09:45:55;;;;;;;4.30;2.13;;;22.10;99.90;;;;;;4928869;29;20478;-83
2023/08/03 09:48:24;;;;;;;2.60;1.93;;;22.20;99.90;;;;;;4927379;28;20467;-82
2023/08/03 09:50:52;;;;;;;3.27;1.50;;;22.20;99.90;;;;;;4928792;28;20476;-79
2023/08/03 09:53:21;;;;;;;2.70;1.50;;;22.20;99.90;;;;;;4926605;29;20469;-82
2023/08/03 09:55:57;;;;;;;3.00;1.57;;;22.20;99.90;;;;;;4923905;28;20458;-84
2023/08/03 09:58:30;;;;;;;3.50;2.00;;;22.20;99.90;;;;;;4924627;28;20466;-84
2023/08/03 10:00:59;;;;;;;3.93;1.70;;;22.20;99.90;;;;;;4925807;28;20978;-84
2023/08/03 10:03:30;;;;;;;3.70;1.80;;;22.20;99.90;;;;;;4924401;28;20891;-80
2023/08/03 10:06:04;;;;;;;2.97;1.57;;;22.20;99.90;;;;;;4925002;28;20462;-82
2023/08/03 10:08:36;;;;;;;4.20;1.67;;;22.20;99.90;;;;;;4924612;28;20479;-79
2023/08/03 10:11:05;;;;;;;2.50;1.10;;;22.20;99.90;;;;;;4930300;29;20926;-83
2023/08/03 10:13:34;;;;;;;2.93;1.30;;;22.20;99.90;;;;;;4933638;29;21076;-81
2023/08/03 10:16:02;;;;;;;2.00;1.63;;;22.20;99.90;;;;;;4928202;28;20497;-78
2023/08/03 10:18:32;;;;;;;2.97;1.40;;;22.20;99.90;;;;;;4929006;28;21173;-82
2023/08/03 10:20:59;;;;;;;1.60;1.20;;;22.20;99.90;;;;;;4930795;28;20482;-81
2023/08/03 10:23:29;;;;;;;1.87;1.37;;;22.20;99.90;;;;;;4932657;29;20876;-84
2023/08/03 10:25:57;;;;;;;2.60;1.67;;;22.20;99.90;;;;;;4932527;29;20465;-84
2023/08/03 10:28:25;;;;;;;1.50;1.10;;;22.20;99.90;;;;;;4932844;29;20462;-85
2023/08/03 10:31:07;;;;;;;1.77;1.33;;;22.20;99.90;;;;;;4932095;28;20470;-79
2023/08/03 10:34:06;;;;;;;3.23;1.33;;;22.20;99.90;;;;;;4928916;28;20466;-79
2023/08/03 10:36:45;;;;;;;1.30;1.10;;;22.20;99.90;;;;;;4933047;28;20468;-81
2023/08/03 10:39:14;;;;;;;2.53;1.40;;;22.10;99.90;;;;;;4933021;29;20945;-82
2023/08/03 10:41:43;;;;;;;2.40;1.60;;;22.20;99.90;;;;;;4932421;28;20984;-80
2023/08/03 10:44:23;;;;;;;2.63;1.30;;;22.20;99.90;;;;;;4933916;28;20470;-85
2023/08/03 10:46:51;;;;;;;4.13;1.30;;;22.20;99.90;;;;;;4930710;28;20560;-81
2023/08/03 10:49:54;;;;;;;1.70;1.27;;;22.20;99.90;;;;;;4929767;29;20466;-82
2023/08/03 10:52:24;;;;;;;2.97;1.23;;;22.20;99.90;;;;;;4930728;28;20490;-78
2023/08/03 10:54:51;;;;;;;3.83;1.33;;;22.20;99.90;;;;;;4932903;29;20964;-79
2023/08/03 10:57:22;;;;;;;2.43;1.20;;;22.20;99.90;;;;;;4932361;28;20462;-79
2023/08/03 10:59:51;;;;;;;2.03;1.40;;;22.20;99.90;;;;;;4930884;28;20469;-79
2023/08/03 11:02:20;;;;;;;2.33;1.33;;;22.30;99.90;;;;;;4929058;28;21328;-78
2023/08/03 11:04:50;;;;;;;2.97;1.30;;;22.30;99.90;;;;;;4931449;29;20463;-78
2023/08/03 11:07:23;;;;;;;5.00;1.70;;;22.30;99.90;;;;;;4927061;28;20989;-79
2023/08/03 11:09:52;;;;;;;3.87;1.20;;;22.30;99.90;;;;;;4931187;28;20467;-78
2023/08/03 11:12:19;;;;;;;3.40;1.33;;;22.30;99.90;;;;;;4928347;28;20550;-80
2023/08/03 11:14:49;;;;;;;1.50;1.20;;;22.30;99.90;;;;;;4929070;28;20853;-80
2023/08/03 11:17:16;;;;;;;1.63;1.37;;;22.30;99.90;;;;;;4928514;28;20466;-79
2023/08/03 11:19:44;;;;;;;2.33;1.60;;;22.30;99.90;;;;;;4930702;29;21042;-82
2023/08/03 11:22:12;;;;;;;1.73;1.20;;;22.30;99.90;;;;;;4929397;28;20489;-78
2023/08/03 11:24:42;;;;;;;3.23;1.30;;;22.30;99.90;;;;;;4929745;29;21057;-77
2023/08/03 11:27:10;;;;;;;1.97;1.30;;;22.30;99.90;;;;;;4926610;28;20466;-77
2023/08/03 11:29:37;;;;;;;1.83;1.30;;;22.30;99.90;;;;;;4926868;28;21158;-77
2023/08/03 11:32:05;;;;;;;2.40;1.23;;;22.30;99.90;;;;;;4925896;28;20495;-76
2023/08/03 11:34:32;;;;;;;1.50;1.20;;;22.30;99.90;;;;;;4927572;29;20466;-77
2023/08/03 11:36:59;;;;;;;1.87;1.30;;;22.30;99.90;;;;;;4926465;29;20476;-77
2023/08/03 11:39:26;;;;;;;1.90;1.40;;;22.30;99.90;;;;;;4928230;28;20470;-76
2023/08/03 11:41:56;;;;;;;1.57;1.10;;;22.20;99.90;;;;;;4929622;28;20466;-76
2023/08/03 11:44:23;;;;;;;2.17;1.20;;;22.20;99.90;;;;;;4930640;28;20764;-76
2023/08/03 11:47:01;;;;;;;3.47;1.63;;;22.20;99.90;;;;;;4929353;29;21010;-76
2023/08/03 11:49:29;;;;;;;1.40;1.20;;;22.20;99.90;;;;;;4928717;29;21027;-76
2023/08/03 11:51:59;;;;;;;1.93;1.40;;;22.20;99.90;;;;;;4931388;29;20859;-76
2023/08/03 11:54:29;;;;;;;2.43;1.40;;;22.20;99.90;;;;;;4928056;28;20971;-76
2023/08/03 11:58:07;;;;;;;2.60;1.47;;;22.20;99.90;;;;;;4927834;29;20468;-76
2023/08/03 11:59:47;;;;;;;2.27;1.30;;;22.20;99.90;;;;;;4928615;29;20459;-76
2023/08/03 12:02:14;;;;;;;1.77;1.60;;;22.20;99.90;;;;;;4927122;29;20457;-76
2023/08/03 12:04:42;;;;;;;1.63;1.20;;;22.20;99.90;;;;;;4927784;28;20465;-76
2023/08/03 12:07:09;;;;;;;2.30;1.43;;;22.20;99.90;;;;;;4920266;28;20969;-78
2023/08/03 12:09:41;;;;;;;1.60;1.20;;;22.20;99.90;;;;;;4924843;28;20461;-79
2023/08/03 12:12:11;;;;;;;1.83;1.63;;;22.20;99.90;;;;;;4924581;28;21075;-80
2023/08/03 12:14:39;;;;;;;1.80;0.97;;;22.20;99.90;;;;;;4926932;28;20983;-80
2023/08/03 12:17:11;;;;;;;1.50;0.90;;;22.20;99.90;;;;;;4930852;29;21042;-80
2023/08/03 12:19:38;;;;;;;2.90;1.27;;;22.20;99.90;;;;;;4930196;28;20482;-79
2023/08/03 12:22:06;;;;;;;1.30;1.10;;;22.20;99.90;;;;;;4931280;29;20493;-77
2023/08/03 12:24:33;;;;;;;2.20;1.50;;;22.20;99.90;;;;;;4930429;29;20470;-78
2023/08/03 12:27:00;;;;;;;2.40;1.13;;;22.20;99.90;;;;;;4932290;28;20465;-78
2023/08/03 12:29:28;;;;;;;2.77;1.37;;;22.20;99.90;;;;;;4928806;29;20459;-78
2023/08/03 12:31:55;;;;;;;2.10;1.17;;;22.20;99.90;;;;;;4925258;28;20882;-76
2023/08/03 12:34:21;;;;;;;1.37;1.27;;;22.20;99.90;;;;;;4926499;29;20825;-76
2023/08/03 12:36:48;;;;;;;3.30;1.50;;;22.20;99.90;;;;;;4926179;29;20552;-78
2023/08/03 12:39:19;;;;;;;4.03;1.80;;;22.20;99.90;;;;;;4926757;29;20944;-84
2023/08/03 12:41:46;;;;;;;2.50;1.17;;;22.20;99.90;;;;;;4927279;29;20858;-83
2023/08/03 12:44:12;;;;;;;2.10;1.40;;;22.20;99.90;;;;;;4927110;28;20500;-85
2023/08/03 12:46:41;;;;;;;1.50;1.13;;;22.20;99.90;;;;;;4924486;28;20478;-83
2023/08/03 12:49:07;;;;;;;1.97;1.10;;;22.20;99.90;;;;;;4921216;28;21093;-75
2023/08/03 12:51:36;;;;;;;2.40;1.63;;;22.20;99.90;;;;;;4923002;28;20904;-75
2023/08/03 12:54:03;;;;;;;2.73;1.20;;;22.20;99.90;;;;;;4919925;28;20548;-76
2023/08/03 12:56:30;;;;;;;3.57;1.30;;;22.30;99.90;;;;;;4925802;29;21047;-76
2023/08/03 12:58:57;;;;;;;2.70;1.43;;;22.30;99.90;;;;;;4924191;29;21008;-75
2023/08/03 13:01:24;;;;;;;3.40;1.50;;;22.30;99.90;;;;;;4927162;29;20458;-75
2023/08/03 13:03:53;;;;;;;6.33;1.67;;;22.30;99.90;;;;;;4928042;29;20848;-75